createdAt,value
2017-08-19T03:30:14.388Z,65.80
2017-08-19T03:32:42.043Z,64.90
2017-08-19T03:35:09.690Z,64.40
2017-08-19T03:37:37.384Z,64.70
2017-08-19T03:40:05.047Z,65.40
2017-08-19T03:42:32.854Z,65.90
2017-08-19T03:45:00.600Z,65.70
2017-08-19T03:47:29.031Z,66.50
2017-08-19T03:49:56.680Z,66.10
2017-08-19T03:52:24.684Z,66.70
2017-08-19T03:54:52.339Z,66.20
2017-08-19T03:57:19.976Z,67.80
2017-08-19T03:59:47.650Z,68.10
2017-08-19T04:02:15.298Z,68.70
2017-08-19T04:04:42.958Z,68.90
2017-08-19T04:07:10.610Z,68.90
2017-08-19T04:09:38.264Z,69.10
2017-08-19T04:12:05.912Z,68.80
2017-08-19T04:14:34.448Z,70.30
2017-08-19T04:17:02.097Z,69.80
2017-08-19T04:19:30.140Z,69.70
2017-08-19T04:21:57.792Z,68.70
2017-08-19T04:24:26.212Z,69.30
2017-08-19T04:26:53.866Z,69.20
2017-08-19T04:29:21.520Z,69.40
2017-08-19T04:31:49.296Z,69.30
2017-08-19T04:34:16.932Z,68.60
2017-08-19T04:36:45.006Z,69.60
2017-08-19T04:39:12.683Z,70.20
2017-08-19T04:41:40.325Z,69.50
2017-08-19T04:44:07.974Z,69.20
2017-08-19T04:46:36.424Z,70.00
2017-08-19T04:49:04.161Z,70.00
2017-08-19T04:51:31.801Z,69.70
2017-08-19T04:53:59.629Z,69.70
2017-08-19T04:56:27.284Z,69.80
2017-08-19T04:58:54.967Z,68.80
2017-08-19T05:01:22.842Z,69.70
2017-08-19T05:03:51.257Z,69.60
2017-08-19T05:06:18.908Z,69.60
2017-08-19T05:08:46.750Z,69.20
2017-08-19T05:11:15.165Z,69.00
2017-08-19T05:13:42.799Z,69.00
2017-08-19T05:16:10.649Z,68.80
2017-08-19T05:18:39.169Z,67.10
2017-08-19T05:21:06.820Z,66.90
2017-08-19T05:23:34.835Z,67.40
2017-08-19T05:26:02.482Z,66.60
2017-08-19T05:28:30.124Z,66.70
2017-08-19T05:30:58.053Z,67.80
2017-08-19T05:33:26.455Z,68.30
2017-08-19T05:35:54.093Z,68.30
2017-08-19T05:38:21.923Z,67.90
2017-08-19T05:40:49.556Z,68.30
2017-08-19T05:43:17.204Z,68.30
2017-08-19T05:45:45.046Z,68.50
2017-08-19T05:48:13.454Z,67.50
2017-08-19T05:50:41.157Z,67.50
2017-08-19T05:53:09.001Z,66.30
2017-08-19T05:55:36.688Z,65.80
2017-08-19T05:58:04.328Z,65.70
2017-08-19T06:00:32.168Z,66.80
2017-08-19T06:02:59.843Z,67.20
2017-08-19T06:05:27.483Z,66.90
2017-08-19T06:07:55.340Z,67.00
2017-08-19T06:10:23.757Z,65.60
2017-08-19T06:12:51.467Z,65.50
2017-08-19T06:15:19.169Z,64.90
2017-08-19T06:17:46.797Z,64.40
2017-08-19T06:20:15.247Z,65.90
2017-08-19T06:22:42.906Z,65.80
2017-08-19T06:25:10.582Z,65.90
2017-08-19T06:27:38.244Z,65.90
2017-08-19T06:30:06.143Z,66.00
2017-08-19T06:32:34.524Z,64.50
2017-08-19T06:35:02.309Z,64.40
2017-08-19T06:37:30.160Z,64.30
2017-08-19T06:39:57.821Z,63.60
2017-08-19T06:42:25.556Z,63.90
2017-08-19T06:44:53.241Z,65.10
2017-08-19T06:47:22.231Z,64.90
2017-08-19T06:49:50.632Z,64.60
2017-08-19T06:52:18.290Z,64.50
2017-08-19T06:54:45.978Z,65.40
2017-08-19T06:57:13.642Z,64.90
2017-08-19T06:59:41.313Z,65.00
2017-08-19T07:02:08.969Z,64.40
2017-08-19T07:04:36.636Z,65.40
2017-08-19T07:07:04.269Z,64.90
2017-08-19T07:09:32.252Z,62.30
2017-08-19T07:11:59.905Z,62.10
2017-08-19T07:14:27.564Z,62.20
2017-08-19T07:16:55.628Z,61.80
2017-08-19T07:19:23.297Z,61.30
2017-08-19T07:21:50.941Z,61.20
2017-08-19T07:24:19.368Z,58.30
2017-08-19T07:26:47.023Z,58.30
2017-08-19T07:29:14.839Z,58.30
2017-08-19T07:31:43.255Z,58.30
2017-08-19T07:34:10.927Z,58.20
2017-08-19T07:36:38.849Z,60.30
2017-08-19T07:39:07.254Z,62.90
2017-08-19T07:41:34.890Z,62.90
2017-08-19T07:44:03.578Z,57.10
2017-08-19T07:46:31.974Z,58.30
2017-08-19T07:48:59.642Z,58.20
2017-08-19T07:51:27.313Z,58.20
2017-08-19T07:53:54.956Z,58.60
2017-08-19T07:56:22.781Z,56.10
2017-08-19T07:58:50.431Z,55.80
2017-08-19T08:01:18.080Z,54.60
2017-08-19T08:03:45.762Z,56.50
2017-08-19T08:06:13.395Z,55.90
2017-08-19T08:08:41.074Z,57.50
2017-08-19T08:11:08.729Z,58.10
2017-08-19T08:13:36.943Z,57.50
2017-08-19T08:16:05.363Z,57.30
2017-08-19T08:18:33.196Z,57.30
2017-08-19T08:21:01.620Z,56.60
2017-08-19T08:23:29.270Z,56.60
2017-08-19T08:25:56.949Z,53.70
2017-08-19T08:28:24.587Z,53.90
2017-08-19T08:30:52.256Z,54.00
2017-08-19T08:33:19.987Z,54.20
2017-08-19T08:35:48.673Z,53.90
2017-08-19T08:38:17.089Z,55.60
2017-08-19T08:40:44.729Z,55.60
2017-08-19T08:43:12.579Z,52.70
2017-08-19T08:45:41.005Z,56.00
2017-08-19T08:48:08.664Z,55.90
2017-08-19T08:50:36.333Z,55.70
2017-08-19T08:53:03.985Z,55.40
2017-08-19T08:55:31.821Z,55.00
2017-08-19T08:57:59.476Z,54.20
2017-08-19T09:00:27.902Z,52.70
2017-08-19T09:02:55.730Z,52.60
2017-08-19T09:05:23.371Z,53.60
2017-08-19T09:07:51.822Z,53.30
2017-08-19T09:10:19.743Z,53.30
2017-08-19T09:12:47.401Z,53.90
2017-08-19T09:15:15.059Z,53.70
2017-08-19T09:17:42.799Z,54.20
2017-08-19T09:20:11.233Z,53.90
2017-08-19T09:22:38.896Z,53.90
2017-08-19T09:25:06.537Z,53.70
2017-08-19T09:27:34.236Z,52.60
2017-08-19T09:30:01.911Z,53.30
2017-08-19T09:32:30.026Z,53.40
2017-08-19T09:34:57.685Z,54.10
2017-08-19T09:37:25.340Z,54.40
2017-08-19T09:39:53.784Z,53.70
2017-08-19T09:42:21.452Z,53.70
2017-08-19T09:44:49.113Z,53.30
2017-08-19T09:47:16.765Z,52.40
2017-08-19T09:49:44.688Z,51.90
2017-08-19T09:52:12.327Z,52.10
2017-08-19T09:54:40.847Z,52.00
2017-08-19T09:57:09.472Z,52.00
2017-08-19T09:59:37.129Z,51.20
2017-08-19T10:02:04.795Z,50.50
2017-08-19T10:04:32.451Z,50.30
2017-08-19T10:07:00.105Z,49.50
2017-08-19T10:09:39.632Z,48.50
2017-08-19T10:12:07.472Z,46.90
2017-08-19T10:14:35.123Z,45.20
2017-08-19T10:17:02.763Z,44.50
2017-08-19T10:19:30.598Z,42.80
2017-08-19T10:21:58.237Z,41.00
2017-08-19T10:24:25.891Z,37.20
2017-08-19T10:26:53.779Z,36.90
2017-08-19T10:29:21.428Z,30.90
2017-08-19T10:31:49.085Z,26.70
2017-08-19T10:34:17.000Z,25.50
2017-08-19T10:36:44.670Z,22.20
2017-08-19T10:39:12.323Z,21.40
2017-08-19T10:47:37.688Z,21.20
2017-08-19T10:50:05.384Z,20.10
2017-08-19T10:52:33.209Z,19.40
2017-08-19T10:55:01.232Z,19.70
2017-08-19T10:57:28.882Z,20.00
2017-08-19T10:59:56.547Z,21.00
2017-08-19T11:02:24.825Z,20.60
2017-08-19T11:04:52.531Z,19.60
2017-08-19T11:07:21.006Z,21.40
2017-08-19T11:09:49.801Z,24.20
2017-08-19T11:12:17.454Z,24.20
2017-08-19T11:14:45.884Z,30.10
2017-08-19T11:17:13.902Z,30.00
2017-08-19T11:19:42.386Z,32.90
2017-08-19T11:22:10.807Z,35.30
2017-08-19T11:24:38.780Z,35.30
2017-08-19T11:27:06.437Z,36.20
2017-08-19T11:29:34.132Z,37.60
2017-08-19T11:32:02.139Z,37.00
2017-08-19T11:34:31.088Z,32.30
2017-08-19T11:36:58.801Z,32.30
2017-08-19T11:39:26.886Z,28.40
2017-08-19T11:41:54.557Z,28.30
2017-08-19T11:44:22.206Z,26.50
2017-08-19T11:46:50.216Z,29.20
2017-08-19T11:49:17.867Z,29.10
2017-08-19T11:51:45.520Z,31.30
2017-08-19T11:54:13.557Z,32.10
2017-08-19T11:56:41.209Z,32.60
2017-08-19T11:59:09.651Z,30.30
2017-08-19T12:01:37.673Z,30.30
2017-08-19T12:04:05.324Z,30.40
2017-08-19T12:06:32.992Z,29.20
2017-08-19T12:09:01.096Z,28.70
2017-08-19T12:11:28.769Z,29.10
2017-08-19T12:13:56.431Z,30.00
2017-08-19T12:16:24.439Z,30.10
2017-08-19T12:18:52.110Z,31.40
2017-08-19T12:21:20.528Z,29.90
2017-08-19T12:23:48.520Z,29.80
2017-08-19T12:26:16.192Z,28.60
2017-08-19T12:28:43.834Z,28.30
2017-08-19T12:31:11.862Z,29.40
2017-08-19T12:33:39.568Z,29.10
2017-08-19T12:36:07.238Z,30.80
2017-08-19T12:38:35.253Z,31.10
2017-08-19T12:41:03.009Z,32.60
2017-08-19T12:43:31.464Z,31.90
2017-08-19T12:45:59.232Z,31.90
2017-08-19T12:48:27.219Z,31.20
2017-08-19T12:50:55.302Z,31.30
2017-08-19T12:53:22.982Z,30.40
2017-08-19T12:55:50.676Z,29.60
2017-08-19T12:58:18.322Z,29.20
2017-08-19T13:00:46.365Z,29.60
2017-08-19T13:03:14.027Z,29.50
2017-08-19T13:05:41.715Z,30.70
2017-08-19T13:08:09.409Z,32.30
2017-08-19T13:10:37.081Z,32.30
2017-08-19T13:13:04.730Z,32.90
2017-08-19T13:15:32.398Z,33.40
2017-08-19T13:18:00.080Z,32.20
2017-08-19T13:22:51.777Z,30.10
2017-08-19T13:25:19.452Z,31.00
2017-08-19T13:27:47.096Z,31.50
2017-08-19T13:30:14.763Z,33.20
2017-08-19T13:32:42.413Z,32.30
2017-08-19T13:35:10.372Z,32.80
2017-08-19T13:37:38.025Z,32.80
2017-08-19T13:40:05.688Z,30.90
2017-08-19T13:42:33.717Z,30.50
2017-08-19T13:45:01.361Z,30.40
2017-08-19T13:47:29.015Z,30.30
2017-08-19T13:49:57.029Z,30.00
2017-08-19T13:52:25.447Z,33.10
2017-08-19T13:54:53.107Z,33.20
2017-08-19T13:57:20.807Z,33.70
2017-08-19T13:59:48.441Z,34.10
2017-08-19T14:02:16.113Z,34.70
2017-08-19T14:04:43.742Z,34.40
2017-08-19T14:07:11.442Z,34.60
2017-08-19T14:09:39.109Z,34.60
2017-08-19T14:12:06.775Z,35.40
2017-08-19T14:14:34.420Z,35.70
2017-08-19T14:17:02.413Z,36.70
2017-08-19T14:19:30.071Z,35.50
2017-08-19T14:21:57.728Z,36.00
2017-08-19T14:24:25.777Z,35.30
2017-08-19T14:26:53.446Z,34.80
2017-08-19T14:29:21.087Z,35.00
2017-08-19T14:31:48.853Z,34.80
2017-08-19T14:34:16.517Z,34.70
2017-08-19T14:36:44.195Z,35.90
2017-08-19T14:39:11.865Z,35.60
2017-08-19T14:41:39.529Z,36.30
2017-08-19T14:44:07.195Z,34.20
2017-08-19T14:46:35.178Z,34.90
2017-08-19T14:49:02.806Z,35.40
2017-08-19T14:51:30.464Z,34.10
2017-08-19T14:53:58.125Z,34.30
2017-08-19T14:56:25.812Z,34.60
2017-08-19T14:58:54.370Z,35.40
2017-08-19T15:01:22.005Z,35.40
2017-08-19T15:03:49.676Z,35.50
2017-08-19T15:06:17.341Z,35.50
2017-08-19T15:08:45.405Z,34.80
2017-08-19T15:11:13.092Z,35.10
2017-08-19T15:13:40.749Z,35.00
2017-08-19T15:16:08.424Z,34.90
2017-08-19T15:18:36.060Z,36.30
2017-08-19T15:21:03.727Z,37.00
2017-08-19T15:23:31.375Z,36.70
2017-08-19T15:25:59.025Z,37.00
2017-08-19T15:28:27.452Z,36.40
2017-08-19T15:30:55.261Z,36.30
2017-08-19T15:33:23.682Z,36.00
2017-08-19T15:35:51.759Z,36.00
2017-08-19T15:38:19.424Z,35.70
2017-08-19T15:40:47.080Z,35.70
2017-08-19T15:43:14.830Z,37.00
2017-08-19T15:45:42.504Z,38.10
2017-08-19T15:48:10.187Z,37.60
2017-08-19T15:50:37.849Z,38.30
2017-08-19T15:53:06.006Z,37.90
2017-08-19T15:55:33.665Z,36.40
2017-08-19T15:58:01.308Z,37.70
2017-08-19T16:00:29.071Z,38.30
2017-08-19T16:02:56.877Z,37.90
2017-08-19T16:05:24.895Z,38.60
2017-08-19T16:07:52.542Z,38.60
2017-08-19T16:10:20.951Z,38.30
2017-08-19T16:12:49.018Z,38.30
2017-08-19T16:15:16.675Z,38.70
2017-08-19T16:17:44.361Z,38.40
2017-08-19T16:20:12.029Z,38.50
2017-08-19T16:22:39.693Z,37.70
2017-08-19T16:25:07.369Z,37.40
2017-08-19T16:27:35.050Z,38.60
2017-08-19T16:30:02.724Z,38.30
2017-08-19T16:32:30.390Z,38.90
2017-08-19T16:34:58.836Z,38.20
2017-08-19T16:37:26.471Z,38.20
2017-08-19T16:39:54.545Z,37.80
2017-08-19T16:42:22.208Z,38.90
2017-08-19T16:44:49.883Z,38.60
2017-08-19T16:47:17.553Z,38.60
2017-08-19T16:49:45.214Z,39.20
2017-08-19T16:52:12.908Z,40.20
2017-08-19T16:54:41.317Z,38.90
2017-08-19T16:57:09.087Z,39.00
2017-08-19T16:59:36.742Z,39.50
2017-08-19T17:02:04.444Z,39.50
2017-08-19T17:04:32.091Z,38.60
2017-08-19T17:07:00.075Z,38.60
2017-08-19T17:09:27.742Z,39.30
2017-08-19T17:11:55.391Z,39.10
2017-08-19T17:14:23.136Z,39.10
2017-08-19T17:16:50.800Z,39.10
2017-08-19T17:19:18.505Z,40.20
2017-08-19T17:21:46.300Z,40.90
2017-08-19T17:24:15.094Z,41.30
2017-08-19T17:26:42.756Z,41.30
2017-08-19T17:29:10.402Z,41.40
2017-08-19T17:31:38.853Z,41.70
2017-08-19T17:34:06.536Z,41.10
2017-08-19T17:36:34.983Z,41.60
2017-08-19T17:39:02.633Z,41.60
2017-08-19T17:41:30.302Z,42.40
2017-08-19T17:43:57.948Z,42.20
2017-08-19T17:46:26.011Z,43.50
2017-08-19T17:48:53.661Z,43.50
2017-08-19T17:51:21.306Z,43.80
2017-08-19T17:53:50.055Z,43.80
2017-08-19T17:56:17.730Z,43.80
2017-08-19T17:58:45.425Z,43.50
2017-08-19T18:01:13.085Z,44.00
2017-08-19T18:03:40.994Z,46.20
2017-08-19T18:06:08.798Z,46.70
2017-08-19T18:08:36.447Z,48.00
2017-08-19T18:11:04.129Z,47.30
2017-08-19T18:13:33.076Z,47.70
2017-08-19T18:16:00.759Z,47.20
2017-08-19T18:18:28.423Z,46.10
2017-08-19T18:20:56.324Z,45.60
2017-08-19T18:23:24.007Z,46.40
2017-08-19T18:25:52.954Z,46.20
2017-08-19T18:28:20.632Z,47.20
2017-08-19T18:30:49.077Z,47.80
2017-08-19T18:33:16.822Z,47.10
2017-08-19T18:35:44.497Z,47.90
2017-08-19T18:38:12.181Z,48.00
2017-08-19T18:40:39.829Z,48.70
2017-08-19T18:43:07.523Z,48.90
2017-08-19T18:45:35.956Z,49.60
2017-08-19T18:48:03.918Z,49.40
2017-08-19T18:50:31.592Z,49.90
2017-08-19T18:52:59.317Z,49.80
2017-08-19T18:55:27.773Z,49.90
2017-08-19T18:57:55.454Z,49.80
2017-08-19T19:00:23.147Z,50.40
2017-08-19T19:02:50.830Z,50.70
2017-08-19T19:05:18.523Z,51.10
2017-08-19T19:07:46.164Z,51.60
2017-08-19T19:10:13.957Z,51.90
2017-08-19T19:12:42.392Z,53.00
2017-08-19T19:15:10.432Z,52.30
2017-08-19T19:17:38.103Z,52.00
2017-08-19T19:20:05.744Z,51.90
2017-08-19T19:22:34.178Z,51.30
2017-08-19T19:25:01.838Z,51.30
2017-08-19T19:27:29.645Z,51.80
2017-08-19T19:29:58.104Z,52.20
2017-08-19T19:32:26.229Z,52.20
2017-08-19T19:34:53.914Z,52.70
2017-08-19T19:37:21.598Z,52.30
2017-08-19T19:39:49.260Z,52.10
2017-08-19T19:42:16.926Z,52.60
2017-08-19T19:44:44.619Z,52.70
2017-08-19T19:47:13.077Z,52.20
2017-08-19T19:49:40.749Z,52.20
2017-08-19T19:52:09.167Z,52.40
2017-08-19T19:54:37.944Z,52.40
2017-08-19T19:57:05.594Z,52.70
2017-08-19T19:59:33.273Z,53.10
2017-08-19T20:02:00.956Z,53.70
2017-08-19T20:04:28.621Z,53.90
2017-08-19T20:06:56.353Z,54.30
2017-08-19T20:09:24.025Z,53.40
2017-08-19T20:11:52.757Z,53.10
2017-08-19T20:14:20.889Z,53.00
2017-08-19T20:16:48.578Z,53.10
2017-08-19T20:19:16.289Z,53.40
2017-08-19T20:21:43.933Z,53.00
2017-08-19T20:24:12.362Z,53.80
2017-08-19T20:26:40.017Z,53.70
2017-08-19T20:29:07.678Z,54.30
2017-08-19T20:31:35.344Z,54.50
2017-08-19T20:34:03.397Z,54.50
2017-08-19T20:36:31.061Z,54.40
2017-08-19T20:38:58.723Z,54.20
2017-08-19T20:41:26.424Z,53.90
2017-08-19T20:43:54.084Z,53.90
2017-08-19T20:46:21.790Z,53.80
2017-08-19T20:48:50.209Z,54.80
2017-08-19T20:51:17.909Z,54.70
2017-08-19T20:53:45.654Z,55.10
2017-08-19T20:56:13.671Z,55.20
2017-08-19T20:58:41.392Z,55.60
2017-08-19T21:01:09.042Z,55.40
2017-08-19T21:03:36.717Z,55.60
2017-08-19T21:06:04.364Z,55.90
2017-08-19T21:08:32.030Z,55.90
2017-08-19T21:10:59.710Z,55.80
2017-08-19T21:13:27.424Z,55.60
2017-08-19T21:15:57.077Z,55.70
2017-08-19T21:18:24.809Z,55.90
2017-08-19T21:20:52.450Z,55.90
2017-08-19T21:23:20.454Z,56.30
2017-08-19T21:25:48.112Z,56.20
2017-08-19T21:28:15.764Z,56.10
2017-08-19T21:30:43.682Z,56.30
2017-08-19T21:33:11.326Z,56.30
2017-08-19T21:35:39.036Z,56.30
2017-08-19T21:38:06.694Z,56.20
2017-08-19T21:40:34.778Z,55.70
2017-08-19T21:43:02.433Z,55.00
2017-08-19T21:45:30.082Z,55.40
2017-08-19T21:47:58.496Z,55.10
2017-08-19T21:50:26.146Z,55.00
2017-08-19T21:52:53.820Z,54.90
2017-08-19T21:55:21.475Z,55.30
2017-08-19T21:57:49.156Z,55.60
2017-08-19T22:00:16.793Z,55.70
2017-08-19T22:02:45.301Z,56.20
2017-08-19T22:05:12.990Z,56.50
2017-08-19T22:07:40.632Z,56.40
2017-08-19T22:10:08.319Z,56.10
2017-08-19T22:12:35.969Z,56.10
2017-08-19T22:15:03.619Z,56.60
2017-08-19T22:17:31.263Z,56.60
2017-08-19T22:19:59.225Z,56.50
2017-08-19T22:22:26.875Z,56.10
2017-08-19T22:24:54.541Z,56.80
2017-08-19T22:27:22.207Z,56.10
2017-08-19T22:29:49.846Z,55.90
